Time;durP1;ratioP1;P1;durP2;ratioP2;P2;SDS_P1;SDS_P2;PMS_P1;PMS_P2;Temp;Humidity;BMP_temperature;BMP_pressure;BME280_temperature;BME280_humidity;BME280_pressure;Samples;Min_cycle;Max_cycle;Signal;HPM_P1;HPM_P2
2022/10/11 00:00:54;;;;;;;0.88;0.60;;;;;;;17.58;100.00;102010.78;21216037;27;20043;-76
2022/10/11 00:11:00;;;;;;;0.45;0.45;;;;;;;17.58;100.00;102013.47;21215933;27;20122;-76
2022/10/11 00:21:04;;;;;;;1.42;0.70;;;;;;;17.59;100.00;102030.50;21215223;27;20518;-75
2022/10/11 00:31:07;;;;;;;0.93;0.55;;;;;;;17.58;100.00;102042.22;21196038;27;20039;-76
2022/10/11 00:41:09;;;;;;;1.25;0.70;;;;;;;17.56;100.00;102033.41;21128440;27;20080;-76
2022/10/11 00:51:22;;;;;;;1.38;0.60;;;;;;;17.42;100.00;102012.81;21211832;27;20050;-75
2022/10/11 01:01:23;;;;;;;1.10;0.70;;;;;;;17.56;100.00;102044.16;21212409;27;20054;-75
2022/10/11 01:11:27;;;;;;;0.73;0.55;;;;;;;17.56;100.00;102050.44;21210680;27;20047;-76
2022/10/11 01:21:48;;;;;;;1.10;0.50;;;;;;;17.42;100.00;102027.16;21210813;27;20050;-75
2022/10/11 01:31:58;;;;;;;0.45;0.45;;;;;;;17.54;100.00;102058.59;21209581;27;20047;-75
2022/10/11 01:42:02;;;;;;;0.70;0.43;;;;;;;17.54;100.00;102073.91;21154817;27;20099;-76
2022/10/11 01:52:05;;;;;;;0.43;0.40;;;;;;;17.36;100.00;102041.03;21209288;27;20043;-75
2022/10/11 02:02:44;;;;;;;1.23;0.50;;;;;;;17.52;100.00;102083.91;21209375;27;20051;-75
2022/10/11 02:13:01;;;;;;;0.88;0.40;;;;;;;17.34;100.00;102062.66;21221190;27;20069;-76
2022/10/11 02:23:08;;;;;;;0.95;0.50;;;;;;;17.43;100.00;102074.63;21222990;27;20159;-75
2022/10/11 02:33:12;;;;;;;0.68;0.32;;;;;;;17.50;100.00;102092.09;21189443;27;20043;-75
2022/10/11 02:43:18;;;;;;;1.37;0.37;;;;;;;17.34;100.00;102070.72;21178305;27;20122;-75
2022/10/11 02:53:21;;;;;;;0.52;0.38;;;;;;;17.42;100.00;102096.25;21220395;27;20124;-76
2022/10/11 03:03:22;;;;;;;0.40;0.40;;;;;;;17.50;100.00;102104.69;21220740;27;20055;-75
2022/10/11 03:13:23;;;;;;;0.70;0.40;;;;;;;17.48;100.00;102104.78;21219139;27;20043;-76
2022/10/11 03:23:25;;;;;;;1.02;0.50;;;;;;;17.49;100.00;102113.75;21218965;27;20043;-76
2022/10/11 03:33:26;;;;;;;0.57;0.35;;;;;;;17.47;100.00;102111.16;21172256;27;20047;-75
2022/10/11 03:43:28;;;;;;;0.60;0.40;;;;;;;17.31;100.00;102097.00;21218101;27;20074;-75
2022/10/11 03:53:30;;;;;;;0.63;0.40;;;;;;;17.47;100.00;102134.53;21217137;27;20142;-76
2022/10/11 04:03:31;;;;;;;0.63;0.40;;;;;;;17.46;99.97;102144.41;21216367;27;20656;-76
2022/10/11 04:13:33;;;;;;;0.73;0.47;;;;;;;17.37;100.00;102134.28;21105536;27;20533;-76
2022/10/11 04:23:34;;;;;;;2.10;0.60;;;;;;;17.52;100.00;102152.06;20722805;27;20064;-75
2022/10/11 04:33:36;;;;;;;1.15;0.55;;;;;;;17.61;100.00;102172.16;20725627;27;20226;-75
2022/10/11 04:43:37;;;;;;;1.98;0.60;;;;;;;17.67;100.00;102171.72;20721074;27;20041;-74
2022/10/11 04:53:39;;;;;;;3.13;0.52;;;;;;;17.56;100.00;102151.88;20725582;27;20049;-76
2022/10/11 05:03:40;;;;;;;2.13;0.80;;;;;;;17.37;100.00;102128.88;20735998;27;20053;-76
2022/10/11 05:13:43;;;;;;;1.42;0.50;;;;;;;17.76;100.00;102194.50;20886853;27;20047;-76
2022/10/11 05:23:46;;;;;;;1.25;0.43;;;;;;;17.77;100.00;102209.69;20860001;27;20132;-76
2022/10/11 05:33:47;;;;;;;2.38;0.60;;;;;;;17.70;100.00;102200.28;20981729;27;20055;-77
2022/10/11 05:43:49;;;;;;;1.65;0.40;;;;;;;17.59;100.00;102182.16;21188203;27;20106;-76
2022/10/11 05:53:50;;;;;;;1.30;0.55;;;;;;;17.79;100.00;102226.59;20915368;27;20053;-76
2022/10/11 06:03:52;;;;;;;1.73;0.40;;;;;;;17.80;100.00;102240.91;20751020;27;20085;-76
2022/10/11 06:13:56;;;;;;;2.72;0.43;;;;;;;17.80;100.00;102241.81;20848346;27;20184;-77
2022/10/11 06:24:00;;;;;;;1.93;0.50;;;;;;;17.81;100.00;102248.03;20794602;27;20053;-76
2022/10/11 06:34:02;;;;;;;0.98;0.40;;;;;;;17.82;100.00;102252.47;20878931;27;20452;-76
2022/10/11 06:44:03;;;;;;;1.80;0.57;;;;;;;17.82;100.00;102261.41;20790811;27;20053;-76
2022/10/11 06:54:05;;;;;;;0.73;0.47;;;;;;;17.83;100.00;102273.91;20718704;27;20046;-76
2022/10/11 07:04:07;;;;;;;1.02;0.50;;;;;;;17.85;100.00;102291.81;20804332;27;20405;-76
2022/10/11 07:14:08;;;;;;;1.20;0.50;;;;;;;17.86;100.00;102304.31;20754324;27;20428;-76
2022/10/11 07:24:10;;;;;;;1.02;0.45;;;;;;;17.86;100.00;102309.69;20720129;27;20498;-77
2022/10/11 07:34:11;;;;;;;1.55;0.47;;;;;;;17.67;100.00;102279.47;20801464;27;20473;-79
2022/10/11 07:44:13;;;;;;;1.55;0.40;;;;;;;17.91;100.00;102323.72;20745495;27;20398;-76
2022/10/11 07:54:15;;;;;;;0.40;0.40;;;;;;;17.76;100.00;102304.94;20796681;27;20049;-76
2022/10/11 08:04:16;;;;;;;0.50;0.40;;;;;;;17.94;100.00;102335.19;20759072;27;20398;-75
2022/10/11 08:14:18;;;;;;;0.63;0.43;;;;;;;17.98;100.00;102335.81;20743511;27;20490;-75
2022/10/11 08:24:19;;;;;;;2.17;0.68;;;;;;;18.01;100.00;102341.03;20774957;27;20085;-74
2022/10/11 08:34:21;;;;;;;1.05;0.45;;;;;;;18.02;96.34;102353.53;20784479;27;20061;-74
2022/10/11 08:44:54;;;;;;;1.50;0.52;;;;;;;18.06;95.09;102365.00;20727669;27;20069;-74
2022/10/11 08:55:32;;;;;;;1.38;0.50;;;;;;;18.09;94.57;102375.56;20730630;27;20057;-74
2022/10/11 09:05:38;;;;;;;1.00;0.50;;;;;;;18.11;94.52;102370.94;20737834;27;20405;-74
2022/10/11 09:16:01;;;;;;;1.67;0.60;;;;;;;18.15;94.31;102379.69;20722453;27;20552;-74
2022/10/11 09:37:10;;;;;;;0.70;0.50;;;;;;;18.18;94.28;102390.28;20803676;27;20054;-74
2022/10/11 09:47:23;;;;;;;1.53;0.50;;;;;;;18.15;93.99;102379.69;20807351;27;20113;-74
2022/10/11 09:57:32;;;;;;;1.30;0.50;;;;;;;18.23;94.04;102404.31;20770986;27;20295;-74
2022/10/11 10:07:38;;;;;;;1.52;0.90;;;;;;;18.24;93.92;102411.44;20785873;27;20141;-74
2022/10/11 10:17:47;;;;;;;1.13;0.30;;;;;;;18.26;93.66;102402.25;20805671;27;20081;-73
2022/10/11 10:27:58;;;;;;;1.23;0.47;;;;;;;18.27;93.42;102400.44;20810027;27;20131;-74
2022/10/11 10:37:59;;;;;;;1.83;0.47;;;;;;;18.27;93.22;102397.75;20765992;27;20498;-75
2022/10/11 10:48:12;;;;;;;1.55;0.40;;;;;;;18.29;93.45;102401.19;20734398;27;20045;-75
2022/10/11 10:58:22;;;;;;;1.00;0.47;;;;;;;17.89;93.71;102339.97;20723566;27;20505;-74
2022/10/11 11:08:54;;;;;;;2.20;0.52;;;;;;;18.31;93.61;102396.56;20725136;27;20054;-75
2022/10/11 11:18:57;;;;;;;0.68;0.50;;;;;;;18.36;93.78;102396.28;20724650;27;20701;-75
2022/10/11 11:29:10;;;;;;;2.10;0.60;;;;;;;18.35;94.00;102387.31;20716801;27;20598;-76
2022/10/11 11:39:16;;;;;;;1.67;0.50;;;;;;;18.33;94.11;102388.38;20727870;27;20054;-75
2022/10/11 11:49:29;;;;;;;2.17;0.82;;;;;;;18.31;94.54;102375.00;20728348;27;20567;-76
2022/10/11 11:59:46;;;;;;;0.90;0.50;;;;;;;18.15;94.98;102348.22;20720513;27;20061;-76
2022/10/11 12:09:53;;;;;;;1.35;0.60;;;;;;;18.18;94.97;102356.09;20716865;27;20061;-75
2022/10/11 12:20:13;;;;;;;1.60;0.60;;;;;;;18.26;95.36;102344.78;20704367;27;20059;-76
2022/10/11 12:30:46;;;;;;;1.10;0.50;;;;;;;18.26;95.48;102336.72;20703844;27;20061;-75
2022/10/11 12:40:55;;;;;;;1.58;0.50;;;;;;;18.26;95.69;102320.53;20733454;27;20046;-75
2022/10/11 12:51:02;;;;;;;1.10;0.50;;;;;;;18.26;95.55;102309.75;20700704;27;20134;-75
2022/10/11 13:01:16;;;;;;;1.98;0.70;;;;;;;18.24;95.69;102311.69;20697874;27;20048;-75
2022/10/11 13:11:24;;;;;;;1.77;0.60;;;;;;;17.87;95.54;102246.78;20712923;27;20057;-76
2022/10/11 13:21:28;;;;;;;2.63;0.70;;;;;;;18.28;94.62;102302.44;20704707;27;20065;-75
2022/10/11 13:31:30;;;;;;;3.03;0.60;;;;;;;18.21;94.39;102282.25;20700522;27;20054;-75
2022/10/11 13:41:33;;;;;;;2.78;0.68;;;;;;;18.35;93.93;102303.72;20708318;27;20134;-75
2022/10/11 13:51:36;;;;;;;1.10;0.40;;;;;;;18.28;94.04;102288.94;20726457;27;20048;-74
2022/10/11 14:01:39;;;;;;;1.73;0.77;;;;;;;18.37;94.27;102306.34;20735915;27;20056;-74
2022/10/11 14:11:41;;;;;;;2.00;0.52;;;;;;;18.36;94.61;102302.75;20725685;27;20056;-75
2022/10/11 14:21:45;;;;;;;1.23;0.50;;;;;;;18.35;93.90;102301.03;20721247;27;20113;-74
2022/10/11 14:31:48;;;;;;;1.30;0.40;;;;;;;18.35;93.96;102310.97;20724788;27;20053;-74
2022/10/11 14:41:51;;;;;;;2.75;0.68;;;;;;;18.32;94.27;102306.63;20718299;27;20050;-75
2022/10/11 14:51:55;;;;;;;1.05;0.47;;;;;;;18.18;94.75;102282.47;20735772;27;20512;-75
2022/10/11 15:01:56;;;;;;;1.90;0.60;;;;;;;18.21;95.16;102301.13;20725530;27;20061;-75
2022/10/11 15:11:58;;;;;;;2.40;0.70;;;;;;;18.17;95.34;102296.91;20725700;27;20053;-75
2022/10/11 15:22:01;;;;;;;1.20;0.60;;;;;;;18.13;96.06;102301.63;20721172;27;20050;-74
2022/10/11 15:32:02;;;;;;;2.30;0.43;;;;;;;18.11;96.29;102304.41;20735073;27;20046;-75
2022/10/11 15:42:04;;;;;;;1.60;0.35;;;;;;;18.09;96.47;102294.72;20739910;27;20045;-75
2022/10/11 15:52:05;;;;;;;1.55;0.40;;;;;;;18.07;96.98;102305.59;20756528;27;20136;-75
2022/10/11 16:02:13;;;;;;;1.08;0.60;;;;;;;18.01;96.97;102281.75;20745852;27;20049;-76
2022/10/11 16:12:14;;;;;;;0.63;0.30;;;;;;;18.04;97.29;102286.94;20781673;27;20053;-74
2022/10/11 16:22:16;;;;;;;1.10;0.30;;;;;;;18.02;97.43;102288.88;20784979;27;20057;-75
2022/10/11 16:32:17;;;;;;;0.63;0.40;;;;;;;18.01;97.68;102292.53;20727497;27;20217;-75
2022/10/11 16:42:19;;;;;;;1.02;0.28;;;;;;;18.00;97.69;102279.16;20739649;27;20045;-75
2022/10/11 16:52:20;;;;;;;0.82;0.30;;;;;;;17.98;97.64;102285.50;20734863;27;20064;-75
2022/10/11 17:02:24;;;;;;;0.82;0.35;;;;;;;17.92;97.77;102282.34;21098618;27;20054;-75
2022/10/11 17:12:35;;;;;;;0.55;0.25;;;;;;;17.95;97.83;102293.78;21142663;27;20060;-75
2022/10/11 17:22:37;;;;;;;0.83;0.40;;;;;;;17.80;98.10;102279.50;20764679;27;20052;-75
2022/10/11 17:32:38;;;;;;;0.73;0.50;;;;;;;17.95;98.24;102309.09;20766482;27;20055;-74
2022/10/11 17:42:40;;;;;;;1.17;0.47;;;;;;;17.93;98.17;102308.31;20895217;27;20497;-75
2022/10/11 17:52:41;;;;;;;0.63;0.30;;;;;;;17.93;98.32;102313.72;20837514;27;20504;-74
2022/10/11 18:02:43;;;;;;;1.50;0.40;;;;;;;17.92;98.38;102295.81;20851023;27;20560;-75
2022/10/11 18:12:45;;;;;;;0.35;0.15;;;;;;;17.90;98.44;102301.31;20958544;27;20041;-75
2022/10/11 18:22:48;;;;;;;0.55;0.35;;;;;;;17.91;98.31;102302.16;20836337;27;20086;-75
2022/10/11 18:32:49;;;;;;;1.60;0.50;;;;;;;17.90;98.50;102300.44;20838396;27;20039;-74
2022/10/11 18:42:51;;;;;;;0.52;0.20;;;;;;;17.89;98.76;102299.56;20934345;27;20049;-75
2022/10/11 18:52:52;;;;;;;0.20;0.20;;;;;;;17.51;98.34;102233.81;20961835;27;20052;-75
2022/10/11 19:02:54;;;;;;;0.20;0.20;;;;;;;17.85;98.61;102298.03;20904192;27;20039;-75
2022/10/11 19:12:55;;;;;;;0.50;0.28;;;;;;;17.67;98.56;102273.19;20848180;27;20412;-75
2022/10/11 19:22:57;;;;;;;0.40;0.20;;;;;;;17.82;98.49;102309.91;20848917;27;20083;-75
2022/10/11 19:32:59;;;;;;;0.90;0.30;;;;;;;17.80;98.58;102301.06;20873288;27;20491;-75
2022/10/11 19:43:01;;;;;;;0.35;0.30;;;;;;;17.50;98.42;102245.56;20881049;27;20060;-75
2022/10/11 19:53:02;;;;;;;0.73;0.30;;;;;;;17.78;98.61;102289.53;20903911;27;20051;-75
2022/10/11 20:03:04;;;;;;;0.55;0.28;;;;;;;17.77;98.59;102285.09;20890885;27;20055;-75
2022/10/11 20:13:10;;;;;;;0.70;0.20;;;;;;;17.76;98.50;102286.06;20928810;27;20124;-75
2022/10/11 20:23:11;;;;;;;0.40;0.30;;;;;;;17.76;98.46;102274.41;20866477;27;20034;-75
2022/10/11 20:33:18;;;;;;;0.28;0.10;;;;;;;17.56;98.54;102255.06;20884513;27;20504;-75
2022/10/11 20:43:20;;;;;;;0.98;0.40;;;;;;;17.73;98.20;102280.88;20834600;27;20503;-75
2022/10/11 20:53:22;;;;;;;0.82;0.28;;;;;;;17.69;98.74;102277.53;20856902;27;20121;-75
2022/10/11 21:03:23;;;;;;;0.43;0.35;;;;;;;17.61;98.35;102268.22;20882032;27;20057;-74
2022/10/11 21:13:24;;;;;;;0.32;0.22;;;;;;;17.71;98.47;102282.81;20964073;27;20049;-75
2022/10/11 21:23:26;;;;;;;0.45;0.30;;;;;;;17.70;98.44;102286.47;20884830;27;20080;-76
2022/10/11 21:33:29;;;;;;;0.20;0.20;;;;;;;17.69;98.39;102282.91;20930719;27;20446;-76
2022/10/11 21:43:30;;;;;;;0.60;0.25;;;;;;;17.64;98.36;102284.16;20931964;27;20060;-76
2022/10/11 21:53:32;;;;;;;0.93;0.28;;;;;;;17.68;98.41;102285.72;20910560;27;20081;-75
2022/10/11 22:03:34;;;;;;;0.43;0.20;;;;;;;17.67;98.44;102275.88;20912622;27;20154;-75
2022/10/11 22:13:35;;;;;;;0.32;0.32;;;;;;;17.65;98.33;102280.50;20969887;27;20060;-77
2022/10/11 22:23:37;;;;;;;0.25;0.25;;;;;;;17.66;98.38;102284.94;20921795;27;20085;-75
2022/10/11 22:33:38;;;;;;;0.20;0.10;;;;;;;17.66;98.17;102287.63;20963792;27;20101;-75
2022/10/11 22:43:40;;;;;;;0.38;0.20;;;;;;;17.63;98.17;102287.81;20851530;27;20044;-75
2022/10/11 22:53:41;;;;;;;0.38;0.30;;;;;;;17.57;98.02;102278.34;20829252;27;20050;-75
2022/10/11 23:03:47;;;;;;;0.55;0.25;;;;;;;17.63;98.18;102275.25;20863059;27;20074;-75
2022/10/11 23:13:48;;;;;;;0.40;0.20;;;;;;;17.02;97.89;102178.69;20852474;27;20151;-75
2022/10/11 23:23:53;;;;;;;0.25;0.20;;;;;;;17.62;98.00;102280.72;20909769;27;20136;-75
2022/10/11 23:33:54;;;;;;;0.53;0.27;;;;;;;17.46;98.47;102253.94;20858577;27;20050;-75
2022/10/11 23:43:57;;;;;;;0.52;0.30;;;;;;;17.51;97.97;102262.59;20894053;27;20296;-75
2022/10/11 23:53:58;;;;;;;0.30;0.30;;;;;;;17.58;97.86;102276.50;20915301;27;20049;-75
